Time;durP1;ratioP1;P1;durP2;ratioP2;P2;SDS_P1;SDS_P2;PMS_P1;PMS_P2;Temp;Humidity;BMP_temperature;BMP_pressure;BME280_temperature;BME280_humidity;BME280_pressure;Samples;Min_cycle;Max_cycle;Signal;HPM_P1;HPM_P2
2022/03/02 00:00:43;;;;;;;24.10;14.38;;;;;;;;;;6207365;28;20042;-69
2022/03/02 00:03:45;;;;;;;23.48;13.85;;;;;;;;;;6209943;28;20183;-69
2022/03/02 00:06:47;;;;;;;26.02;14.88;;;;;;;;;;6208583;28;20128;-68
2022/03/02 00:09:50;;;;;;;22.98;13.90;;;;;;;;;;6211917;28;20405;-68
2022/03/02 00:12:52;;;;;;;22.65;14.13;;;;;;;;;;6209222;28;20052;-68
2022/03/02 00:15:53;;;;;;;22.50;14.30;;;;;;;;;;6207121;28;20124;-69
2022/03/02 00:18:55;;;;;;;28.42;14.73;;;;;;;;;;6205392;28;20054;-68
2022/03/02 00:21:57;;;;;;;26.35;14.90;;;;;;;;;;6201873;28;20133;-69
2022/03/02 00:24:59;;;;;;;24.42;14.18;;;;;;;;;;6206089;28;20064;-69
2022/03/02 00:28:01;;;;;;;28.05;14.48;;;;;;;;;;6209246;28;20065;-68
2022/03/02 00:31:03;;;;;;;27.35;14.85;;;;;;;;;;6207847;28;20058;-69
2022/03/02 00:34:04;;;;;;;27.23;14.70;;;;;;;;;;6208463;28;20125;-68
2022/03/02 00:37:06;;;;;;;24.15;14.98;;;;;;;;;;6204465;28;20192;-69
2022/03/02 00:40:09;;;;;;;23.52;13.95;;;;;;;;;;6200498;28;20128;-69
2022/03/02 00:43:11;;;;;;;22.57;14.33;;;;;;;;;;6210943;28;20141;-69
2022/03/02 00:46:12;;;;;;;23.83;14.02;;;;;;;;;;6209129;28;20050;-69
2022/03/02 00:49:14;;;;;;;23.00;14.52;;;;;;;;;;6207840;28;20133;-69
2022/03/02 00:52:17;;;;;;;22.52;14.20;;;;;;;;;;6205343;28;20129;-68
2022/03/02 00:55:20;;;;;;;27.13;14.30;;;;;;;;;;6203749;28;20046;-69
2022/03/02 00:58:21;;;;;;;22.88;14.40;;;;;;;;;;6202787;28;20049;-68
2022/03/02 01:01:23;;;;;;;25.55;14.93;;;;;;;;;;6202761;28;20498;-69
2022/03/02 01:04:25;;;;;;;24.30;15.38;;;;;;;;;;6201143;28;20505;-68
2022/03/02 01:07:26;;;;;;;23.55;15.18;;;;;;;;;;6208018;28;20192;-69
2022/03/02 01:10:29;;;;;;;25.95;14.98;;;;;;;;;;6206906;28;20459;-69
2022/03/02 01:13:31;;;;;;;25.45;15.23;;;;;;;;;;6205382;28;20137;-68
2022/03/02 01:16:33;;;;;;;26.90;15.48;;;;;;;;;;6209036;28;20129;-68
2022/03/02 01:19:35;;;;;;;25.52;15.25;;;;;;;;;;6210804;28;20050;-68
2022/03/02 01:22:37;;;;;;;27.70;15.98;;;;;;;;;;6208213;28;20422;-68
2022/03/02 01:25:40;;;;;;;28.83;16.63;;;;;;;;;;6206967;28;20196;-69
2022/03/02 01:28:42;;;;;;;24.40;15.75;;;;;;;;;;6204967;28;20042;-68
2022/03/02 01:31:44;;;;;;;26.27;15.65;;;;;;;;;;6210672;28;20128;-68
2022/03/02 01:34:45;;;;;;;27.85;16.42;;;;;;;;;;6206902;28;20133;-69
2022/03/02 01:37:47;;;;;;;29.48;16.52;;;;;;;;;;6206209;28;20524;-68
2022/03/02 01:40:50;;;;;;;32.22;17.48;;;;;;;;;;6205658;28;20444;-68
2022/03/02 01:43:53;;;;;;;25.83;15.80;;;;;;;;;;6205811;28;20196;-68
2022/03/02 01:46:55;;;;;;;32.58;16.85;;;;;;;;;;6209909;28;20133;-68
2022/03/02 01:49:56;;;;;;;24.85;15.73;;;;;;;;;;6209546;28;20050;-68
2022/03/02 01:52:58;;;;;;;28.20;16.38;;;;;;;;;;6211239;28;20048;-68
2022/03/02 01:56:01;;;;;;;26.70;16.63;;;;;;;;;;6218324;28;20157;-68
2022/03/02 01:59:04;;;;;;;31.95;17.67;;;;;;;;;;6210101;28;20137;-69
2022/03/02 02:02:06;;;;;;;29.33;17.70;;;;;;;;;;6212554;28;20133;-68
2022/03/02 02:05:07;;;;;;;29.88;17.38;;;;;;;;;;6211981;28;20133;-69
2022/03/02 02:08:09;;;;;;;32.30;19.20;;;;;;;;;;6209768;28;20121;-67
2022/03/02 02:11:13;;;;;;;29.27;18.45;;;;;;;;;;6209733;28;20548;-67
2022/03/02 02:14:15;;;;;;;30.92;17.52;;;;;;;;;;6207911;28;20089;-67
2022/03/02 02:17:16;;;;;;;29.60;17.67;;;;;;;;;;6207334;28;20046;-67
2022/03/02 02:20:18;;;;;;;31.02;18.45;;;;;;;;;;6204326;28;20521;-67
2022/03/02 02:23:21;;;;;;;29.92;17.70;;;;;;;;;;6204470;28;20125;-68
2022/03/02 02:26:25;;;;;;;27.95;16.98;;;;;;;;;;6213856;28;20121;-67
2022/03/02 02:29:30;;;;;;;29.63;16.17;;;;;;;;;;6219572;28;20439;-67
2022/03/02 02:32:32;;;;;;;33.72;16.95;;;;;;;;;;6218535;28;20045;-68
2022/03/02 02:35:34;;;;;;;28.42;15.95;;;;;;;;;;6216572;28;20148;-67
2022/03/02 02:38:37;;;;;;;29.27;15.85;;;;;;;;;;6214603;28;20124;-67
2022/03/02 02:41:38;;;;;;;35.72;16.77;;;;;;;;;;6212268;28;20073;-67
2022/03/02 02:44:40;;;;;;;30.20;16.00;;;;;;;;;;6207922;28;20509;-67
2022/03/02 02:47:42;;;;;;;31.05;15.68;;;;;;;;;;6208912;28;20133;-68
2022/03/02 02:50:43;;;;;;;27.50;16.83;;;;;;;;;;6205449;28;20133;-67
2022/03/02 02:53:46;;;;;;;28.80;15.52;;;;;;;;;;6205322;28;20052;-67
2022/03/02 02:56:48;;;;;;;29.83;15.75;;;;;;;;;;6203167;28;20066;-67
2022/03/02 02:59:50;;;;;;;26.77;15.63;;;;;;;;;;6203019;28;20173;-68
2022/03/02 03:02:52;;;;;;;30.15;16.10;;;;;;;;;;6210033;28;20485;-67
2022/03/02 03:05:54;;;;;;;26.10;15.15;;;;;;;;;;6209015;28;20049;-67
2022/03/02 03:08:57;;;;;;;29.17;15.55;;;;;;;;;;6217858;28;20129;-67
2022/03/02 03:11:58;;;;;;;28.60;15.40;;;;;;;;;;6212555;28;20122;-67
2022/03/02 03:15:00;;;;;;;33.28;17.30;;;;;;;;;;6212038;28;20046;-67
2022/03/02 03:18:02;;;;;;;29.02;16.58;;;;;;;;;;6211692;28;20050;-67
2022/03/02 03:21:04;;;;;;;28.35;17.65;;;;;;;;;;6208536;28;20096;-67
2022/03/02 03:24:07;;;;;;;29.77;17.52;;;;;;;;;;6211030;28;20096;-67
2022/03/02 03:27:09;;;;;;;33.03;18.83;;;;;;;;;;6206084;28;20117;-67
2022/03/02 03:30:12;;;;;;;32.92;19.70;;;;;;;;;;6206085;28;20072;-67
2022/03/02 03:33:13;;;;;;;36.75;19.15;;;;;;;;;;6209639;28;20148;-67
2022/03/02 03:36:15;;;;;;;36.75;20.48;;;;;;;;;;6210788;28;20050;-67
2022/03/02 03:39:18;;;;;;;35.60;19.08;;;;;;;;;;6208203;28;20053;-68
2022/03/02 03:42:19;;;;;;;32.03;19.25;;;;;;;;;;6212611;28;20196;-68
2022/03/02 03:45:21;;;;;;;28.95;18.65;;;;;;;;;;6210228;28;20084;-68
2022/03/02 03:48:23;;;;;;;33.55;17.98;;;;;;;;;;6209796;28;20076;-67
2022/03/02 03:51:25;;;;;;;35.13;18.90;;;;;;;;;;6210659;28;20136;-67
2022/03/02 03:54:28;;;;;;;33.92;18.67;;;;;;;;;;6209665;28;20072;-67
2022/03/02 03:57:30;;;;;;;30.70;17.42;;;;;;;;;;6207410;28;20191;-67
2022/03/02 04:00:32;;;;;;;29.83;18.27;;;;;;;;;;6206502;28;20062;-66
2022/03/02 04:03:35;;;;;;;32.63;18.95;;;;;;;;;;6207826;28;20046;-67
2022/03/02 04:06:37;;;;;;;32.13;17.10;;;;;;;;;;6206064;28;20128;-66
2022/03/02 04:09:40;;;;;;;31.50;17.63;;;;;;;;;;6199316;28;21040;-66
2022/03/02 04:12:41;;;;;;;28.52;16.83;;;;;;;;;;6209153;28;20129;-66
2022/03/02 04:15:43;;;;;;;28.17;15.52;;;;;;;;;;6206262;28;20132;-68
2022/03/02 04:18:45;;;;;;;27.42;16.50;;;;;;;;;;6200734;28;20065;-68
2022/03/02 04:21:46;;;;;;;26.58;15.27;;;;;;;;;;6202077;28;20202;-66
2022/03/02 04:24:49;;;;;;;27.02;15.73;;;;;;;;;;6203822;28;20136;-68
2022/03/02 04:27:51;;;;;;;23.80;14.85;;;;;;;;;;6211115;28;20563;-68
2022/03/02 04:30:52;;;;;;;26.42;14.43;;;;;;;;;;6210020;28;20658;-68
2022/03/02 04:33:54;;;;;;;26.08;15.60;;;;;;;;;;6204111;28;20554;-69
2022/03/02 04:36:56;;;;;;;24.15;14.65;;;;;;;;;;6207381;28;20081;-69
2022/03/02 04:39:59;;;;;;;22.92;14.25;;;;;;;;;;6203052;28;20569;-68
2022/03/02 04:43:00;;;;;;;23.20;13.90;;;;;;;;;;6201286;28;20132;-68
2022/03/02 04:46:02;;;;;;;23.05;14.52;;;;;;;;;;6201495;28;20050;-69
2022/03/02 04:49:10;;;;;;;23.23;14.38;;;;;;;;;;6206804;28;20050;-69
2022/03/02 04:52:12;;;;;;;26.35;13.70;;;;;;;;;;6206582;28;20046;-68
2022/03/02 04:55:16;;;;;;;27.33;14.13;;;;;;;;;;6205247;28;20043;-69
2022/03/02 04:58:18;;;;;;;22.85;13.30;;;;;;;;;;6204350;28;20042;-68
2022/03/02 05:01:19;;;;;;;23.98;13.68;;;;;;;;;;6208036;28;20148;-68
2022/03/02 05:04:21;;;;;;;25.00;13.40;;;;;;;;;;6203167;28;20070;-68
2022/03/02 05:07:22;;;;;;;21.60;13.93;;;;;;;;;;6210173;28;20053;-68
2022/03/02 05:10:27;;;;;;;23.40;13.82;;;;;;;;;;6205959;28;20049;-70
2022/03/02 05:13:29;;;;;;;23.23;13.45;;;;;;;;;;6204822;28;20050;-68
2022/03/02 05:16:30;;;;;;;22.75;12.65;;;;;;;;;;6206937;28;20136;-69
2022/03/02 05:19:33;;;;;;;24.88;13.68;;;;;;;;;;6202495;28;20042;-68
2022/03/02 05:22:35;;;;;;;22.92;13.07;;;;;;;;;;6206826;28;20068;-70
2022/03/02 05:25:38;;;;;;;22.73;13.30;;;;;;;;;;6204657;28;20143;-68
2022/03/02 05:28:39;;;;;;;25.30;12.88;;;;;;;;;;6204522;28;20592;-69
2022/03/02 05:31:41;;;;;;;26.40;14.13;;;;;;;;;;6203922;28;20056;-68
2022/03/02 05:34:42;;;;;;;22.85;13.63;;;;;;;;;;6204014;28;20184;-68
2022/03/02 05:37:44;;;;;;;27.92;13.68;;;;;;;;;;6201978;28;20140;-70
2022/03/02 05:40:47;;;;;;;23.20;13.45;;;;;;;;;;6206003;28;20050;-71
2022/03/02 05:43:49;;;;;;;22.92;13.25;;;;;;;;;;6201947;28;20065;-68
2022/03/02 05:46:51;;;;;;;27.63;13.75;;;;;;;;;;6205309;28;20043;-68
2022/03/02 05:49:52;;;;;;;23.98;13.43;;;;;;;;;;6203110;28;20061;-67
2022/03/02 05:52:54;;;;;;;28.10;14.45;;;;;;;;;;6211472;28;20133;-68
2022/03/02 05:55:57;;;;;;;27.60;16.13;;;;;;;;;;6206504;28;20139;-69
2022/03/02 05:58:59;;;;;;;28.17;15.18;;;;;;;;;;6211555;28;20169;-70
2022/03/02 06:02:01;;;;;;;25.52;15.13;;;;;;;;;;6208540;28;20095;-69
2022/03/02 06:05:03;;;;;;;28.38;16.77;;;;;;;;;;6206255;28;20084;-69
2022/03/02 06:08:07;;;;;;;30.77;15.05;;;;;;;;;;6206776;28;20051;-70
2022/03/02 06:11:10;;;;;;;29.40;15.48;;;;;;;;;;6205476;28;20054;-68
2022/03/02 06:14:12;;;;;;;31.00;16.70;;;;;;;;;;6204598;28;20118;-70
2022/03/02 06:17:14;;;;;;;35.67;15.43;;;;;;;;;;6202094;28;20132;-69
2022/03/02 06:20:17;;;;;;;32.60;16.23;;;;;;;;;;6203809;28;20046;-69
2022/03/02 06:23:19;;;;;;;34.35;14.98;;;;;;;;;;6204798;28;20498;-69
2022/03/02 06:26:23;;;;;;;26.80;15.48;;;;;;;;;;6212368;28;20098;-71
2022/03/02 06:29:25;;;;;;;31.00;16.83;;;;;;;;;;6209154;28;20122;-68
2022/03/02 06:32:27;;;;;;;28.45;16.45;;;;;;;;;;6216372;28;20060;-67
2022/03/02 06:35:29;;;;;;;30.95;17.30;;;;;;;;;;6218377;28;20046;-68
2022/03/02 06:38:30;;;;;;;30.25;16.65;;;;;;;;;;6214616;28;20165;-67
2022/03/02 06:41:41;;;;;;;29.90;16.08;;;;;;;;;;6211622;28;20591;-68
2022/03/02 06:44:49;;;;;;;32.63;16.15;;;;;;;;;;6207505;28;20181;-68
2022/03/02 06:47:54;;;;;;;32.55;17.13;;;;;;;;;;6207001;28;20165;-68
2022/03/02 06:50:55;;;;;;;28.17;16.58;;;;;;;;;;6208434;28;20129;-67
2022/03/02 06:53:59;;;;;;;31.80;17.35;;;;;;;;;;6206941;28;20181;-67
2022/03/02 06:57:03;;;;;;;31.00;16.55;;;;;;;;;;6204479;28;20514;-67
2022/03/02 07:00:07;;;;;;;31.48;16.45;;;;;;;;;;6209732;28;20516;-68
2022/03/02 07:03:10;;;;;;;32.30;16.52;;;;;;;;;;6203060;28;20129;-68
2022/03/02 07:06:14;;;;;;;27.77;15.93;;;;;;;;;;6217174;28;20054;-67
2022/03/02 07:09:16;;;;;;;24.13;14.55;;;;;;;;;;6219279;28;20556;-67
2022/03/02 07:12:20;;;;;;;27.95;16.45;;;;;;;;;;6216128;28;20137;-68
2022/03/02 07:15:22;;;;;;;29.88;17.00;;;;;;;;;;6213216;28;20054;-67
2022/03/02 07:18:24;;;;;;;26.83;14.40;;;;;;;;;;6212275;28;20266;-69
2022/03/02 07:21:28;;;;;;;25.60;15.13;;;;;;;;;;6210663;28;20050;-67
2022/03/02 07:24:35;;;;;;;27.88;16.10;;;;;;;;;;6209229;28;20099;-67
2022/03/02 07:27:40;;;;;;;26.60;15.63;;;;;;;;;;6205593;28;20144;-68
2022/03/02 07:30:43;;;;;;;29.35;15.10;;;;;;;;;;6205730;28;20170;-68
2022/03/02 07:33:46;;;;;;;26.83;15.07;;;;;;;;;;6207156;28;20129;-68
2022/03/02 07:36:48;;;;;;;25.85;15.55;;;;;;;;;;6208284;28;21002;-68
2022/03/02 07:39:49;;;;;;;30.33;15.82;;;;;;;;;;6200594;28;20196;-69
2022/03/02 07:42:52;;;;;;;26.23;16.20;;;;;;;;;;6201690;28;20085;-68
2022/03/02 07:45:54;;;;;;;32.45;15.45;;;;;;;;;;6212175;28;20073;-68
2022/03/02 07:48:56;;;;;;;28.48;14.63;;;;;;;;;;6201284;28;20509;-69
2022/03/02 07:51:58;;;;;;;28.35;14.05;;;;;;;;;;6206885;28;20203;-68
2022/03/02 07:55:07;;;;;;;29.90;14.07;;;;;;;;;;6207399;28;20494;-68
2022/03/02 07:58:10;;;;;;;24.83;14.10;;;;;;;;;;6205651;28;20634;-68
2022/03/02 08:01:14;;;;;;;24.52;15.02;;;;;;;;;;6202595;28;20050;-68
2022/03/02 08:04:16;;;;;;;;;;;;;;;;;;6205719;28;20549;-71
2022/03/02 08:07:17;;;;;;;25.25;14.48;;;;;;;;;;6203823;28;20579;-68
2022/03/02 08:10:19;;;;;;;28.92;15.45;;;;;;;;;;6201527;28;20179;-69
2022/03/02 08:13:23;;;;;;;24.63;15.10;;;;;;;;;;6199189;28;20116;-68
2022/03/02 08:16:26;;;;;;;26.42;15.70;;;;;;;;;;6206604;28;20387;-70
2022/03/02 08:19:27;;;;;;;27.13;16.33;;;;;;;;;;6214325;28;20152;-68
2022/03/02 08:22:30;;;;;;;22.05;14.95;;;;;;;;;;6207713;28;20535;-69
2022/03/02 08:25:32;;;;;;;28.30;15.52;;;;;;;;;;6202946;28;20166;-68
2022/03/02 08:28:36;;;;;;;26.85;15.25;;;;;;;;;;6211931;28;20107;-69
2022/03/02 08:31:39;;;;;;;26.37;14.63;;;;;;;;;;6209976;28;20137;-69
2022/03/02 08:34:43;;;;;;;24.10;14.93;;;;;;;;;;6207183;28;20129;-69
2022/03/02 08:37:45;;;;;;;21.00;12.70;;;;;;;;;;6205932;28;20140;-69
2022/03/02 08:40:47;;;;;;;20.88;13.63;;;;;;;;;;6205744;28;20050;-69
2022/03/02 08:43:49;;;;;;;19.98;13.10;;;;;;;;;;6204018;28;20189;-68
2022/03/02 08:46:51;;;;;;;20.35;12.25;;;;;;;;;;6202994;28;20614;-68
2022/03/02 08:49:54;;;;;;;23.65;13.38;;;;;;;;;;6199184;28;20132;-69
2022/03/02 08:52:57;;;;;;;23.80;12.98;;;;;;;;;;6199808;28;20050;-69
2022/03/02 08:56:00;;;;;;;24.27;14.63;;;;;;;;;;6210079;28;20177;-68
2022/03/02 08:59:04;;;;;;;23.57;14.60;;;;;;;;;;6206998;28;20038;-70
2022/03/02 09:02:07;;;;;;;23.58;15.65;;;;;;;;;;6204538;28;20485;-69
2022/03/02 09:05:09;;;;;;;25.58;15.88;;;;;;;;;;6208391;28;20068;-69
2022/03/02 09:08:11;;;;;;;27.65;14.95;;;;;;;;;;6208108;28;20129;-70
2022/03/02 09:11:12;;;;;;;28.02;15.95;;;;;;;;;;6207356;28;20179;-70
2022/03/02 09:14:16;;;;;;;22.08;15.32;;;;;;;;;;6203881;28;20066;-70
2022/03/02 09:17:19;;;;;;;22.38;14.80;;;;;;;;;;6204740;28;20118;-69
2022/03/02 09:20:20;;;;;;;22.55;14.65;;;;;;;;;;6202068;28;20050;-70
2022/03/02 09:23:26;;;;;;;22.40;14.43;;;;;;;;;;6203392;28;20057;-70
2022/03/02 09:26:27;;;;;;;19.90;13.70;;;;;;;;;;6206219;28;20062;-69
2022/03/02 09:29:31;;;;;;;21.35;13.98;;;;;;;;;;6205202;28;20137;-69
2022/03/02 09:32:34;;;;;;;21.52;13.88;;;;;;;;;;6205332;28;20189;-68
2022/03/02 09:35:35;;;;;;;20.70;13.98;;;;;;;;;;6200630;28;20141;-69
2022/03/02 09:38:38;;;;;;;20.38;12.88;;;;;;;;;;6201795;28;20133;-69
2022/03/02 09:41:48;;;;;;;19.58;12.73;;;;;;;;;;6202059;28;20141;-69
2022/03/02 09:44:54;;;;;;;19.42;12.13;;;;;;;;;;6200357;28;20054;-69
2022/03/02 09:47:58;;;;;;;20.98;13.27;;;;;;;;;;6206140;28;20080;-69
2022/03/02 09:51:01;;;;;;;18.80;12.63;;;;;;;;;;6204975;28;20553;-68
2022/03/02 09:54:04;;;;;;;22.77;13.43;;;;;;;;;;6208195;28;20591;-69
2022/03/02 09:57:07;;;;;;;17.65;12.70;;;;;;;;;;6207178;28;20097;-69
2022/03/02 10:00:13;;;;;;;15.73;11.57;;;;;;;;;;6210738;28;20060;-64
2022/03/02 10:03:19;;;;;;;25.60;14.15;;;;;;;;;;6213606;28;20050;-68
2022/03/02 10:06:22;;;;;;;22.33;14.07;;;;;;;;;;6210583;28;20042;-69
2022/03/02 10:09:27;;;;;;;21.17;13.90;;;;;;;;;;6211048;28;20050;-69
2022/03/02 10:12:31;;;;;;;22.10;14.40;;;;;;;;;;6208290;28;20086;-69
2022/03/02 10:15:34;;;;;;;20.75;14.13;;;;;;;;;;6206528;28;20073;-69
2022/03/02 10:18:36;;;;;;;16.02;10.55;;;;;;;;;;6204487;28;20047;-70
2022/03/02 10:21:42;;;;;;;21.30;13.90;;;;;;;;;;6205982;28;20410;-70
2022/03/02 10:24:46;;;;;;;24.73;13.88;;;;;;;;;;6207178;28;20057;-70
2022/03/02 10:28:00;;;;;;;19.92;14.68;;;;;;;;;;6206224;28;20103;-70
2022/03/02 10:31:26;;;;;;;18.55;12.98;;;;;;;;;;6208558;28;20046;-69
2022/03/02 10:34:36;;;;;;;17.25;12.30;;;;;;;;;;6209835;28;20062;-69
2022/03/02 10:37:39;;;;;;;18.60;12.90;;;;;;;;;;6213220;28;20043;-69
2022/03/02 10:40:40;;;;;;;18.97;11.57;;;;;;;;;;6210558;28;20116;-70
2022/03/02 10:43:50;;;;;;;19.30;14.63;;;;;;;;;;6212034;28;20484;-69
2022/03/02 10:46:56;;;;;;;17.20;12.77;;;;;;;;;;6207574;28;20046;-69
2022/03/02 10:49:58;;;;;;;18.95;13.07;;;;;;;;;;6206936;28;20058;-70
2022/03/02 10:53:00;;;;;;;19.08;12.32;;;;;;;;;;6207453;28;20058;-69
2022/03/02 10:56:04;;;;;;;18.13;11.88;;;;;;;;;;6205741;28;20108;-70
2022/03/02 10:59:07;;;;;;;17.35;13.05;;;;;;;;;;6208877;28;20111;-70
2022/03/02 11:02:11;;;;;;;31.33;14.00;;;;;;;;;;6208787;28;20046;-70
2022/03/02 11:05:14;;;;;;;16.73;12.55;;;;;;;;;;6211640;28;20050;-70
2022/03/02 11:08:16;;;;;;;18.83;13.10;;;;;;;;;;6212369;28;20053;-70
2022/03/02 11:11:18;;;;;;;18.08;11.95;;;;;;;;;;6209485;28;20128;-70
2022/03/02 11:14:20;;;;;;;19.15;12.23;;;;;;;;;;6214006;28;20137;-70
2022/03/02 11:17:23;;;;;;;17.70;12.88;;;;;;;;;;6214290;28;20452;-70
2022/03/02 11:20:27;;;;;;;17.70;13.15;;;;;;;;;;6208474;28;20061;-71
2022/03/02 11:23:34;;;;;;;17.02;12.52;;;;;;;;;;6207888;28;20554;-71
2022/03/02 11:26:37;;;;;;;15.07;12.43;;;;;;;;;;6205025;28;20049;-72
2022/03/02 11:29:41;;;;;;;16.60;13.38;;;;;;;;;;6206049;28;20086;-71
2022/03/02 11:32:45;;;;;;;17.27;12.20;;;;;;;;;;6205305;28;20054;-72
2022/03/02 11:35:47;;;;;;;13.75;10.93;;;;;;;;;;6209435;28;20120;-72
2022/03/02 11:38:53;;;;;;;17.75;11.88;;;;;;;;;;6206852;28;20043;-71
2022/03/02 11:41:56;;;;;;;18.85;13.25;;;;;;;;;;6204792;28;20050;-71
2022/03/02 11:44:59;;;;;;;16.45;11.63;;;;;;;;;;6206875;28;20100;-71
2022/03/02 11:48:10;;;;;;;17.00;12.40;;;;;;;;;;6216630;28;20093;-71
2022/03/02 11:51:18;;;;;;;16.88;11.85;;;;;;;;;;6214203;28;20485;-71
2022/03/02 11:54:19;;;;;;;17.10;12.07;;;;;;;;;;6206430;28;20050;-71
2022/03/02 11:57:22;;;;;;;18.15;13.20;;;;;;;;;;6207068;28;20045;-71
2022/03/02 12:00:25;;;;;;;22.90;12.53;;;;;;;;;;6201759;28;20054;-72
2022/03/02 12:03:28;;;;;;;17.70;12.18;;;;;;;;;;6204376;28;20050;-70
2022/03/02 12:06:31;;;;;;;18.95;13.45;;;;;;;;;;6205136;28;20531;-71
2022/03/02 12:09:35;;;;;;;16.70;11.75;;;;;;;;;;6201643;28;20152;-71
2022/03/02 12:12:40;;;;;;;;;;;;;;;;;;6201809;28;20445;-71
2022/03/02 12:15:44;;;;;;;14.30;11.48;;;;;;;;;;6200393;28;20060;-70
2022/03/02 12:18:47;;;;;;;;;;;;;;;;;;6204312;28;20053;-69
2022/03/02 12:21:50;;;;;;;17.95;11.77;;;;;;;;;;6204423;28;19922;-71
2022/03/02 12:24:51;;;;;;;18.08;11.60;;;;;;;;;;6204271;28;20042;-71
2022/03/02 12:27:58;;;;;;;14.18;11.02;;;;;;;;;;6211824;28;20190;-70
2022/03/02 12:31:00;;;;;;;15.15;10.93;;;;;;;;;;6207630;28;20054;-64
2022/03/02 12:34:12;;;;;;;18.10;10.43;;;;;;;;;;6206898;28;20072;-70
2022/03/02 12:37:14;;;;;;;18.02;11.30;;;;;;;;;;6204519;28;20673;-71
2022/03/02 12:40:16;;;;;;;19.42;11.63;;;;;;;;;;6201306;28;20498;-72
2022/03/02 12:43:19;;;;;;;16.65;10.77;;;;;;;;;;6204527;28;20050;-72
2022/03/02 12:46:20;;;;;;;16.83;11.43;;;;;;;;;;6203364;28;20046;-70
2022/03/02 12:49:26;;;;;;;14.77;11.20;;;;;;;;;;6202360;28;20065;-72
2022/03/02 12:52:29;;;;;;;19.58;13.75;;;;;;;;;;6198661;28;20153;-74
2022/03/02 12:55:31;;;;;;;17.88;13.15;;;;;;;;;;6206952;28;20097;-74
2022/03/02 12:58:33;;;;;;;18.00;12.43;;;;;;;;;;6209496;28;20523;-75
2022/03/02 13:01:34;;;;;;;18.15;13.07;;;;;;;;;;6209602;28;20153;-73
2022/03/02 13:04:43;;;;;;;17.00;13.23;;;;;;;;;;6205605;28;20393;-73
2022/03/02 13:07:53;;;;;;;17.25;12.27;;;;;;;;;;6201553;28;20208;-74
2022/03/02 13:10:55;;;;;;;16.63;12.18;;;;;;;;;;6203653;28;20049;-74
2022/03/02 13:13:56;;;;;;;18.88;13.00;;;;;;;;;;6207753;28;20463;-74
2022/03/02 13:17:14;;;;;;;16.92;12.55;;;;;;;;;;6199045;28;20037;-74
2022/03/02 13:20:19;;;;;;;14.93;11.68;;;;;;;;;;6201376;28;20050;-75
2022/03/02 13:23:22;;;;;;;17.40;12.25;;;;;;;;;;6204170;28;20080;-74
2022/03/02 13:26:24;;;;;;;16.63;12.20;;;;;;;;;;6202149;28;20141;-74
2022/03/02 13:29:28;;;;;;;16.73;12.35;;;;;;;;;;6206858;28;20109;-74
2022/03/02 13:32:55;;;;;;;15.82;12.57;;;;;;;;;;6207378;28;20050;-73
2022/03/02 13:36:00;;;;;;;18.70;12.95;;;;;;;;;;6212390;28;20077;-72
2022/03/02 13:39:08;;;;;;;18.00;13.18;;;;;;;;;;6212115;28;20057;-73
2022/03/02 13:42:20;;;;;;;16.58;12.15;;;;;;;;;;6206775;28;20585;-75
2022/03/02 13:45:21;;;;;;;21.30;13.23;;;;;;;;;;6205750;28;20552;-73
2022/03/02 13:48:24;;;;;;;19.02;12.18;;;;;;;;;;6213984;28;20085;-73
2022/03/02 13:51:27;;;;;;;18.55;12.50;;;;;;;;;;6211210;28;20184;-73
2022/03/02 13:54:29;;;;;;;18.40;12.47;;;;;;;;;;6209695;28;20456;-72
2022/03/02 13:57:31;;;;;;;18.42;13.27;;;;;;;;;;6210608;28;20123;-70
2022/03/02 14:00:33;;;;;;;17.63;12.30;;;;;;;;;;6207139;28;20453;-71
2022/03/02 14:03:39;;;;;;;21.08;14.40;;;;;;;;;;6201658;28;20074;-72
2022/03/02 14:06:43;;;;;;;16.67;12.52;;;;;;;;;;6209454;28;20053;-72
2022/03/02 14:09:45;;;;;;;19.35;14.02;;;;;;;;;;6213334;28;20081;-71
2022/03/02 14:12:50;;;;;;;18.55;12.02;;;;;;;;;;6207495;28;20046;-71
2022/03/02 14:15:51;;;;;;;20.58;12.85;;;;;;;;;;6205948;28;20129;-73
2022/03/02 14:19:04;;;;;;;14.75;11.13;;;;;;;;;;6209344;28;20050;-72
2022/03/02 14:22:09;;;;;;;16.38;11.80;;;;;;;;;;6210640;28;20050;-72
2022/03/02 14:25:13;;;;;;;16.50;11.90;;;;;;;;;;6206905;28;20097;-72
2022/03/02 14:28:14;;;;;;;19.30;12.05;;;;;;;;;;6209723;28;20145;-71
2022/03/02 14:31:16;;;;;;;18.33;11.20;;;;;;;;;;6212586;28;20196;-71
2022/03/02 14:34:18;;;;;;;17.10;11.57;;;;;;;;;;6213481;28;20493;-74
2022/03/02 14:37:24;;;;;;;18.73;11.35;;;;;;;;;;6208415;28;20086;-74
2022/03/02 14:40:27;;;;;;;17.77;12.00;;;;;;;;;;6210519;28;20133;-73
2022/03/02 14:43:28;;;;;;;16.83;11.70;;;;;;;;;;6214440;28;20111;-73
2022/03/02 14:46:34;;;;;;;17.80;12.30;;;;;;;;;;6208325;28;20061;-71
2022/03/02 14:49:40;;;;;;;17.08;11.10;;;;;;;;;;6205650;28;20143;-72
2022/03/02 14:52:50;;;;;;;16.48;11.60;;;;;;;;;;6206076;28;20299;-72
2022/03/02 14:55:53;;;;;;;20.02;11.68;;;;;;;;;;6208831;28;20148;-71
2022/03/02 14:58:57;;;;;;;18.90;12.73;;;;;;;;;;6206153;28;20061;-71
2022/03/02 15:02:03;;;;;;;16.67;11.53;;;;;;;;;;6204640;28;20581;-71
2022/03/02 15:05:05;;;;;;;19.15;12.82;;;;;;;;;;6201220;28;20543;-70
2022/03/02 15:08:08;;;;;;;17.67;12.52;;;;;;;;;;6207988;28;20074;-72
2022/03/02 15:11:12;;;;;;;20.63;12.93;;;;;;;;;;6205549;28;20535;-72
2022/03/02 15:17:33;;;;;;;17.92;12.35;;;;;;;;;;6215353;28;20088;-74
2022/03/02 15:20:35;;;;;;;19.27;13.05;;;;;;;;;;6212628;28;20052;-73
2022/03/02 15:23:38;;;;;;;17.65;12.50;;;;;;;;;;6208727;28;20129;-74
2022/03/02 15:26:45;;;;;;;20.45;12.52;;;;;;;;;;6206436;28;20054;-73
2022/03/02 15:29:47;;;;;;;19.83;13.23;;;;;;;;;;6207096;28;20541;-73
2022/03/02 15:32:49;;;;;;;19.42;13.25;;;;;;;;;;6205078;28;20056;-72
2022/03/02 15:35:50;;;;;;;26.55;13.80;;;;;;;;;;6203749;28;20124;-73
2022/03/02 15:38:53;;;;;;;20.70;12.52;;;;;;;;;;6203463;28;20779;-72
2022/03/02 15:42:00;;;;;;;26.33;14.45;;;;;;;;;;6200701;28;20204;-73
2022/03/02 15:45:08;;;;;;;34.47;13.05;;;;;;;;;;6212174;28;20136;-75
2022/03/02 15:48:14;;;;;;;23.73;13.55;;;;;;;;;;6211940;28;20366;-74
2022/03/02 15:51:19;;;;;;;18.63;12.85;;;;;;;;;;6202378;28;20120;-73
2022/03/02 15:54:22;;;;;;;21.67;13.23;;;;;;;;;;6210312;28;20073;-74
2022/03/02 15:57:24;;;;;;;21.35;13.57;;;;;;;;;;6208797;28;20137;-74
2022/03/02 16:00:28;;;;;;;21.42;14.25;;;;;;;;;;6205156;28;20372;-71
2022/03/02 16:03:32;;;;;;;20.30;13.57;;;;;;;;;;6204339;28;20157;-71
2022/03/02 16:06:34;;;;;;;21.90;14.00;;;;;;;;;;6208354;28;20459;-72
2022/03/02 16:09:37;;;;;;;23.33;13.75;;;;;;;;;;6207418;28;20136;-74
2022/03/02 16:12:45;;;;;;;22.77;13.65;;;;;;;;;;6204599;28;20395;-72
2022/03/02 16:15:51;;;;;;;21.65;13.65;;;;;;;;;;6203143;28;20145;-73
2022/03/02 16:19:03;;;;;;;23.30;13.88;;;;;;;;;;6198161;28;20050;-73
2022/03/02 16:22:05;;;;;;;20.48;13.43;;;;;;;;;;6198258;28;20439;-73
2022/03/02 16:25:20;;;;;;;28.05;14.30;;;;;;;;;;6205096;28;20077;-72
2022/03/02 16:28:23;;;;;;;19.30;14.18;;;;;;;;;;6210371;28;20109;-73
2022/03/02 16:31:24;;;;;;;20.03;14.10;;;;;;;;;;6205302;28;20119;-72
2022/03/02 16:34:29;;;;;;;21.65;13.82;;;;;;;;;;6209586;28;20103;-75
2022/03/02 16:37:31;;;;;;;20.10;13.52;;;;;;;;;;6205649;28;20057;-74
2022/03/02 16:40:35;;;;;;;24.02;15.65;;;;;;;;;;6209487;28;20053;-74
2022/03/02 16:43:36;;;;;;;30.10;17.40;;;;;;;;;;6205438;28;20507;-72
2022/03/02 16:46:41;;;;;;;21.70;13.63;;;;;;;;;;6202962;28;20042;-75
2022/03/02 16:49:45;;;;;;;19.60;13.32;;;;;;;;;;6204421;28;20050;-76
2022/03/02 16:52:47;;;;;;;;;;;;;;;;;;6201950;28;20054;-75
2022/03/02 16:55:50;;;;;;;20.27;12.93;;;;;;;;;;6199949;28;20016;-75
2022/03/02 16:58:52;;;;;;;20.27;13.25;;;;;;;;;;6203015;28;20488;-75
2022/03/02 17:01:53;;;;;;;20.10;13.88;;;;;;;;;;6206773;28;20045;-74
2022/03/02 17:04:55;;;;;;;22.20;14.05;;;;;;;;;;6214010;28;20489;-75
2022/03/02 17:07:57;;;;;;;23.17;15.10;;;;;;;;;;6207286;28;20129;-75
2022/03/02 17:10:59;;;;;;;21.67;14.02;;;;;;;;;;6210083;28;20098;-74
2022/03/02 17:14:01;;;;;;;22.17;14.10;;;;;;;;;;6206176;28;20141;-75
2022/03/02 17:17:03;;;;;;;22.17;13.80;;;;;;;;;;6200605;28;20137;-75
2022/03/02 17:20:08;;;;;;;21.45;13.43;;;;;;;;;;6200921;28;20568;-74
2022/03/02 17:23:09;;;;;;;23.08;13.82;;;;;;;;;;6199222;28;20464;-72
2022/03/02 17:26:12;;;;;;;21.10;14.38;;;;;;;;;;6204315;28;20209;-74
2022/03/02 17:29:14;;;;;;;21.80;13.07;;;;;;;;;;6200904;28;20051;-74
2022/03/02 17:32:16;;;;;;;20.67;13.55;;;;;;;;;;6199238;28;20095;-75
2022/03/02 17:35:17;;;;;;;25.65;14.48;;;;;;;;;;6202025;28;20441;-75
2022/03/02 17:38:19;;;;;;;24.65;14.50;;;;;;;;;;6203806;28;20124;-72
2022/03/02 17:41:22;;;;;;;21.80;14.00;;;;;;;;;;6204796;28;20129;-72
2022/03/02 17:44:24;;;;;;;28.13;15.25;;;;;;;;;;6200945;28;20129;-72
2022/03/02 17:47:25;;;;;;;21.70;13.60;;;;;;;;;;6209524;28;20184;-71
2022/03/02 17:50:27;;;;;;;21.55;14.13;;;;;;;;;;6205924;28;20130;-72